createdAt,value
2024-01-15T00:00:41.771Z,100234.66
2024-01-15T00:03:09.302Z,100231.91
2024-01-15T00:05:36.955Z,100224.94
2024-01-15T00:08:04.262Z,100234.13
2024-01-15T00:10:31.386Z,100228.97
2024-01-15T00:12:58.566Z,100224.75
2024-01-15T00:15:26.412Z,100222.19
2024-01-15T00:17:53.669Z,100220.84
2024-01-15T00:20:20.831Z,100218.31
2024-01-15T00:22:47.968Z,100221.69
2024-01-15T00:25:15.317Z,100222.91
2024-01-15T00:27:42.503Z,100227.28
2024-01-15T00:30:10.887Z,100221.09
2024-01-15T00:32:38.248Z,100226.63
2024-01-15T00:35:06.209Z,100220.78
2024-01-15T00:37:33.434Z,100221.72
2024-01-15T00:40:00.771Z,100218.69
2024-01-15T00:42:28.107Z,100221.22
2024-01-15T00:44:55.662Z,100222.31
2024-01-15T00:47:22.977Z,100220.84
2024-01-15T00:49:50.291Z,100216.75
2024-01-15T00:52:17.485Z,100221.66
2024-01-15T00:54:44.580Z,100221.59
2024-01-15T00:57:11.744Z,100219.22
2024-01-15T00:59:39.151Z,100223.06
2024-01-15T01:02:06.362Z,100217.47
2024-01-15T01:04:33.513Z,100208.00
2024-01-15T01:07:00.828Z,100208.72
2024-01-15T01:09:30.504Z,100212.16
2024-01-15T01:11:58.021Z,100205.78
2024-01-15T01:14:25.160Z,100208.94
2024-01-15T01:16:52.374Z,100209.84
2024-01-15T01:19:19.812Z,100207.09
2024-01-15T01:21:47.233Z,100209.72
2024-01-15T01:24:14.419Z,100213.84
2024-01-15T01:26:41.651Z,100210.72
2024-01-15T01:29:08.847Z,100211.50
2024-01-15T01:31:36.413Z,100210.31
2024-01-15T01:34:03.761Z,100199.22
2024-01-15T01:36:33.084Z,100195.78
2024-01-15T01:39:00.390Z,100195.56
2024-01-15T01:41:27.572Z,100199.69
2024-01-15T01:43:54.823Z,100195.78
2024-01-15T01:46:22.145Z,100200.25
2024-01-15T01:48:49.850Z,100191.38
2024-01-15T01:51:17.301Z,100193.25
2024-01-15T01:53:46.719Z,100197.34
2024-01-15T01:56:14.843Z,100192.41
2024-01-15T01:58:42.228Z,100191.56
2024-01-15T02:01:09.983Z,100196.97
2024-01-15T02:03:37.592Z,100189.19
2024-01-15T02:06:05.399Z,100195.34
2024-01-15T02:08:33.020Z,100194.09
2024-01-15T02:11:00.171Z,100193.09
2024-01-15T02:13:27.447Z,100190.25
2024-01-15T02:15:54.674Z,100188.34
2024-01-15T02:18:22.270Z,100180.59
2024-01-15T02:20:49.606Z,100178.22
2024-01-15T02:23:17.517Z,100176.56
2024-01-15T02:25:46.868Z,100182.72
2024-01-15T02:28:19.106Z,100177.59
2024-01-15T02:30:47.091Z,100182.03
2024-01-15T02:33:14.868Z,100179.06
2024-01-15T02:35:42.379Z,100169.28
2024-01-15T02:38:09.681Z,100177.47
2024-01-15T02:40:37.959Z,100174.31
2024-01-15T02:43:05.598Z,100171.88
2024-01-15T02:45:33.016Z,100172.06
2024-01-15T02:48:00.250Z,100179.81
2024-01-15T02:50:27.584Z,100180.25
2024-01-15T02:52:54.892Z,100174.47
2024-01-15T02:55:22.242Z,100176.06
2024-01-15T02:57:49.458Z,100171.53
2024-01-15T03:00:16.938Z,100174.28
2024-01-15T03:02:48.520Z,100183.50
2024-01-15T03:05:16.538Z,100175.81
2024-01-15T03:07:44.824Z,100178.72
2024-01-15T03:10:12.066Z,100173.53
2024-01-15T03:12:39.253Z,100183.56
2024-01-15T03:15:06.827Z,100175.56
2024-01-15T03:17:34.293Z,100179.09
2024-01-15T03:20:03.959Z,100183.34
2024-01-15T03:22:31.244Z,100192.84
2024-01-15T03:24:58.381Z,100192.38
2024-01-15T03:27:25.571Z,100192.91
2024-01-15T03:29:52.934Z,100194.47
2024-01-15T03:32:20.918Z,100194.16
2024-01-15T03:34:49.038Z,100196.25
2024-01-15T03:37:16.439Z,100195.50
2024-01-15T03:39:43.653Z,100200.81
2024-01-15T03:42:10.962Z,100196.28
2024-01-15T03:44:38.055Z,100192.84
2024-01-15T03:47:05.660Z,100197.19
2024-01-15T03:49:32.943Z,100180.53
2024-01-15T03:52:00.082Z,100181.13
2024-01-15T03:54:28.274Z,100183.50
2024-01-15T03:56:55.456Z,100181.50
2024-01-15T03:59:22.761Z,100186.31
2024-01-15T04:01:53.043Z,100193.19
2024-01-15T04:04:20.543Z,100190.81
2024-01-15T04:06:47.935Z,100193.47
2024-01-15T04:09:15.507Z,100192.09
2024-01-15T04:11:42.825Z,100187.06
2024-01-15T04:14:09.911Z,100194.72
2024-01-15T04:16:38.874Z,100194.03
2024-01-15T04:19:06.192Z,100200.63
2024-01-15T04:21:33.680Z,100204.66
2024-01-15T04:24:01.052Z,100198.38
2024-01-15T04:26:28.191Z,100206.44
2024-01-15T04:28:55.351Z,100204.34
2024-01-15T04:31:28.490Z,100197.13
2024-01-15T04:33:56.113Z,100204.88
2024-01-15T04:36:23.633Z,100203.47
2024-01-15T04:38:50.840Z,100208.91
2024-01-15T04:41:18.381Z,100202.72
2024-01-15T04:43:45.818Z,100207.31
2024-01-15T04:46:13.067Z,100205.09
2024-01-15T04:48:40.325Z,100202.06
2024-01-15T04:51:10.236Z,100204.81
2024-01-15T04:53:37.587Z,100199.16
2024-01-15T04:56:05.009Z,100195.66
2024-01-15T04:58:32.151Z,100198.56
2024-01-15T05:00:59.355Z,100193.72
2024-01-15T05:03:26.645Z,100197.13
2024-01-15T05:05:54.007Z,100196.56
2024-01-15T05:08:21.227Z,100193.13
2024-01-15T05:10:49.168Z,100194.28
2024-01-15T05:13:16.497Z,100202.78
2024-01-15T05:15:44.230Z,100199.31
2024-01-15T05:18:11.780Z,100195.19
2024-01-15T05:20:39.046Z,100194.81
2024-01-15T05:23:06.201Z,100194.34
2024-01-15T05:25:33.468Z,100186.88
2024-01-15T05:28:01.144Z,100192.44
2024-01-15T05:30:28.437Z,100188.44
2024-01-15T05:32:55.784Z,100186.22
2024-01-15T05:35:23.048Z,100178.59
2024-01-15T05:37:50.305Z,100179.44
2024-01-15T05:40:17.454Z,100177.75
2024-01-15T05:42:44.609Z,100176.72
2024-01-15T05:45:11.812Z,100174.97
2024-01-15T05:47:39.145Z,100173.13
2024-01-15T05:50:08.035Z,100171.38
2024-01-15T05:52:35.461Z,100173.44
2024-01-15T05:55:02.828Z,100174.22
2024-01-15T05:57:30.059Z,100171.91
2024-01-15T05:59:57.320Z,100172.00
2024-01-15T06:02:24.500Z,100166.84
2024-01-15T06:04:51.668Z,100170.72
2024-01-15T06:07:18.909Z,100166.81
2024-01-15T06:09:46.336Z,100169.50
2024-01-15T06:12:13.772Z,100176.56
2024-01-15T06:14:42.528Z,100169.66
2024-01-15T06:17:09.842Z,100161.78
2024-01-15T06:19:37.057Z,100161.25
2024-01-15T06:22:04.495Z,100162.31
2024-01-15T06:24:31.714Z,100160.41
2024-01-15T06:26:58.849Z,100147.50
2024-01-15T06:29:27.685Z,100138.28
2024-01-15T06:31:55.406Z,100134.72
2024-01-15T06:34:22.900Z,100135.88
2024-01-15T06:36:50.244Z,100138.84
2024-01-15T06:39:17.437Z,100136.41
2024-01-15T06:41:45.010Z,100141.72
2024-01-15T06:44:12.935Z,100139.69
2024-01-15T06:46:46.493Z,100132.44
2024-01-15T06:49:14.076Z,100127.53
2024-01-15T06:51:41.891Z,100119.63
2024-01-15T06:54:09.900Z,100113.72
2024-01-15T06:56:37.067Z,100125.72
2024-01-15T06:59:04.172Z,100114.94
2024-01-15T07:01:31.521Z,100110.06
2024-01-15T07:03:58.897Z,100120.34
2024-01-15T07:06:26.259Z,100121.03
2024-01-15T07:08:53.659Z,100116.88
2024-01-15T07:11:21.013Z,100121.28
2024-01-15T07:13:48.236Z,100120.88
2024-01-15T07:16:29.671Z,100120.69
2024-01-15T07:19:02.542Z,100111.38
2024-01-15T07:21:29.785Z,100112.94
2024-01-15T07:23:56.969Z,100114.31
2024-01-15T07:26:24.174Z,100107.94
2024-01-15T07:28:51.403Z,100104.16
2024-01-15T07:31:19.147Z,100101.06
2024-01-15T07:33:47.710Z,100098.75
2024-01-15T07:36:15.074Z,100097.44
2024-01-15T07:38:42.205Z,100097.06
2024-01-15T07:41:09.446Z,100104.91
2024-01-15T07:43:36.623Z,100108.56
2024-01-15T07:46:04.094Z,100108.38
2024-01-15T07:48:31.703Z,100108.09
2024-01-15T07:50:58.909Z,100107.03
2024-01-15T07:53:26.111Z,100097.00
2024-01-15T07:55:53.338Z,100102.91
2024-01-15T07:58:20.461Z,100107.06
2024-01-15T08:00:47.757Z,100106.59
2024-01-15T08:03:16.671Z,100099.19
2024-01-15T08:05:44.031Z,100096.00
2024-01-15T08:08:11.207Z,100109.63
2024-01-15T08:10:38.407Z,100115.13
2024-01-15T08:13:05.502Z,100109.78
2024-01-15T08:15:32.784Z,100104.25
2024-01-15T08:18:00.722Z,100096.81
2024-01-15T08:20:28.155Z,100096.84
2024-01-15T08:22:55.357Z,100093.44
2024-01-15T08:25:22.531Z,100095.38
2024-01-15T08:27:50.113Z,100091.81
2024-01-15T08:30:17.667Z,100095.47
2024-01-15T08:32:44.950Z,100087.22
2024-01-15T08:35:12.862Z,100084.59
2024-01-15T08:37:40.481Z,100084.25
2024-01-15T08:40:08.334Z,100089.63
2024-01-15T08:42:35.627Z,100097.94
2024-01-15T08:45:03.034Z,100085.81
2024-01-15T08:47:30.288Z,100088.63
2024-01-15T08:49:57.520Z,100084.81
2024-01-15T08:52:24.697Z,100087.78
2024-01-15T08:54:52.240Z,100080.28
2024-01-15T08:57:19.530Z,100082.91
2024-01-15T08:59:46.626Z,100080.50
2024-01-15T09:02:14.000Z,100067.91
2024-01-15T09:04:42.335Z,100067.97
2024-01-15T09:07:09.769Z,100057.44
2024-01-15T09:09:37.896Z,100057.88
2024-01-15T09:12:05.400Z,100050.25
2024-01-15T09:14:36.786Z,100044.41
2024-01-15T09:17:06.589Z,100026.28
2024-01-15T09:19:34.146Z,100026.09
2024-01-15T09:22:01.505Z,100021.59
2024-01-15T09:24:29.604Z,100017.41
2024-01-15T09:26:58.362Z,100017.50
2024-01-15T09:29:25.668Z,100012.75
2024-01-15T09:31:53.618Z,100004.41
2024-01-15T09:34:21.267Z,100004.47
2024-01-15T09:36:50.300Z,99997.34
2024-01-15T09:39:17.925Z,99996.13
2024-01-15T09:41:45.339Z,100001.13
2024-01-15T09:44:13.549Z,99990.84
2024-01-15T09:46:41.358Z,99983.72
2024-01-15T09:49:08.726Z,99980.53
2024-01-15T09:51:37.802Z,99986.44
2024-01-15T09:54:05.415Z,99981.88
2024-01-15T09:56:32.910Z,99982.69
2024-01-15T09:59:01.242Z,99973.13
2024-01-15T10:01:29.656Z,99964.34
2024-01-15T10:03:57.104Z,99961.56
2024-01-15T10:06:24.760Z,99955.66
2024-01-15T10:08:52.862Z,99955.56
2024-01-15T10:11:21.051Z,99954.03
2024-01-15T10:13:53.724Z,99948.25
2024-01-15T10:16:26.480Z,99940.94
2024-01-15T10:18:54.850Z,99936.41
2024-01-15T10:21:23.198Z,99927.91
2024-01-15T10:23:51.693Z,99924.16
2024-01-15T10:26:19.922Z,99918.38
2024-01-15T10:28:54.224Z,99912.81
2024-01-15T10:31:26.192Z,99920.59
2024-01-15T10:33:55.522Z,99918.47
2024-01-15T10:36:24.324Z,99906.88
2024-01-15T10:38:51.789Z,99894.78
2024-01-15T10:41:18.921Z,99888.53
2024-01-15T10:43:46.337Z,99876.47
2024-01-15T10:46:13.980Z,99879.63
2024-01-15T10:48:41.322Z,99865.47
2024-01-15T10:51:12.131Z,99859.91
2024-01-15T10:53:43.241Z,99861.13
2024-01-15T10:56:11.516Z,99858.75
2024-01-15T10:58:40.888Z,99847.59
2024-01-15T11:01:08.494Z,99849.34
2024-01-15T11:03:35.953Z,99842.47
2024-01-15T11:06:04.792Z,99837.19
2024-01-15T11:08:32.827Z,99833.94
2024-01-15T11:11:00.121Z,99826.72
2024-01-15T11:13:33.184Z,99835.94
2024-01-15T11:16:05.747Z,99840.16
2024-01-15T11:18:41.525Z,99837.13
2024-01-15T11:21:17.759Z,99830.91
2024-01-15T11:23:54.021Z,99823.25
2024-01-15T11:26:35.342Z,99816.63
2024-01-15T11:29:04.898Z,99822.44
2024-01-15T11:31:52.281Z,99816.31
2024-01-15T11:34:20.426Z,99804.69
2024-01-15T11:36:47.637Z,99806.34
2024-01-15T11:39:33.747Z,99803.28
2024-01-15T11:42:05.223Z,99796.81
2024-01-15T11:44:32.648Z,99791.31
2024-01-15T11:47:05.174Z,99794.72
2024-01-15T11:49:50.726Z,99795.28
2024-01-15T11:52:24.932Z,99796.28
2024-01-15T11:55:17.903Z,99794.88
2024-01-15T11:57:51.175Z,99791.00
2024-01-15T12:00:19.315Z,99786.38
2024-01-15T12:02:47.957Z,99784.50
2024-01-15T12:05:17.928Z,99786.72
2024-01-15T12:07:47.145Z,99767.44
2024-01-15T12:10:18.545Z,99768.22
2024-01-15T12:13:02.216Z,99767.97
2024-01-15T12:15:31.187Z,99756.94
2024-01-15T12:18:00.193Z,99763.13
2024-01-15T12:20:36.983Z,99765.84
2024-01-15T12:23:08.965Z,99761.06
2024-01-15T12:25:37.094Z,99766.81
2024-01-15T12:28:04.699Z,99766.00
2024-01-15T12:30:35.730Z,99758.94
2024-01-15T12:33:07.912Z,99751.59
2024-01-15T12:35:35.862Z,99743.06
2024-01-15T12:38:06.556Z,99738.47
2024-01-15T12:40:36.930Z,99735.66
2024-01-15T12:43:07.070Z,99727.03
2024-01-15T12:45:34.477Z,99723.81
2024-01-15T12:48:02.238Z,99721.75
2024-01-15T12:50:29.460Z,99728.94
2024-01-15T12:52:56.823Z,99733.50
2024-01-15T12:55:23.987Z,99718.97
2024-01-15T12:57:54.036Z,99730.66
2024-01-15T13:00:22.004Z,99736.75
2024-01-15T13:02:51.084Z,99731.16
2024-01-15T13:05:19.306Z,99731.78
2024-01-15T13:07:46.709Z,99731.47
2024-01-15T13:10:14.085Z,99729.66
2024-01-15T13:12:42.762Z,99722.84
2024-01-15T13:15:14.913Z,99716.47
2024-01-15T13:17:44.493Z,99727.88
2024-01-15T13:20:14.053Z,99722.34
2024-01-15T13:22:45.443Z,99722.19
2024-01-15T13:25:13.144Z,99717.91
2024-01-15T13:27:41.544Z,99728.22
2024-01-15T13:30:10.077Z,99713.31
2024-01-15T13:32:37.577Z,99721.78
2024-01-15T13:35:08.232Z,99710.25
2024-01-15T13:37:35.952Z,99701.84
2024-01-15T13:40:04.934Z,99692.34
2024-01-15T13:42:32.288Z,99690.00
2024-01-15T13:44:59.707Z,99697.78
2024-01-15T13:47:26.895Z,99706.81
2024-01-15T13:49:54.111Z,99697.97
2024-01-15T13:52:21.253Z,99692.41
2024-01-15T13:54:50.570Z,99682.22
2024-01-15T13:57:20.887Z,99688.38
2024-01-15T13:59:48.927Z,99676.38
2024-01-15T14:02:19.750Z,99681.44
2024-01-15T14:04:50.163Z,99671.44
2024-01-15T14:07:18.040Z,99674.78
2024-01-15T14:09:45.413Z,99669.03
2024-01-15T14:12:13.426Z,99674.97
2024-01-15T14:14:41.607Z,99665.84
2024-01-15T14:17:08.967Z,99655.28
2024-01-15T14:19:37.021Z,99652.56
2024-01-15T14:22:05.021Z,99654.94
2024-01-15T14:24:32.292Z,99652.25
2024-01-15T14:26:59.929Z,99659.19
2024-01-15T14:29:28.255Z,99651.69
2024-01-15T14:31:55.667Z,99654.69
2024-01-15T14:34:25.497Z,99668.66
2024-01-15T14:36:56.482Z,99662.53
2024-01-15T14:42:21.500Z,99662.72
2024-01-15T14:44:48.623Z,99664.66
2024-01-15T14:47:15.706Z,99654.53
2024-01-15T14:49:42.938Z,99653.81
2024-01-15T14:52:10.174Z,99653.94
2024-01-15T14:54:37.369Z,99656.44
2024-01-15T14:57:04.856Z,99657.63
2024-01-15T14:59:32.081Z,99653.59
2024-01-15T15:01:59.281Z,99652.50
2024-01-15T15:04:29.885Z,99649.78
2024-01-15T15:06:58.303Z,99657.75
2024-01-15T15:09:25.730Z,99649.13
2024-01-15T15:11:53.358Z,99655.91
2024-01-15T15:14:20.508Z,99656.63
2024-01-15T15:16:50.509Z,99649.97
2024-01-15T15:19:19.085Z,99650.94
2024-01-15T15:21:46.478Z,99651.06
2024-01-15T15:24:14.004Z,99654.81
2024-01-15T15:26:41.287Z,99653.59
2024-01-15T15:29:09.221Z,99652.44
2024-01-15T15:31:36.528Z,99653.13
2024-01-15T15:34:04.158Z,99651.59
2024-01-15T15:36:32.163Z,99642.97
2024-01-15T15:38:59.899Z,99643.81
2024-01-15T15:41:30.096Z,99643.53
2024-01-15T15:43:57.261Z,99644.31
2024-01-15T15:46:24.499Z,99636.25
2024-01-15T15:48:51.935Z,99641.56
2024-01-15T15:51:19.260Z,99638.56
2024-01-15T15:53:46.455Z,99643.34
2024-01-15T15:56:13.634Z,99641.19
2024-01-15T15:58:41.361Z,99644.59
2024-01-15T16:01:08.598Z,99648.25
2024-01-15T16:03:35.831Z,99640.25
2024-01-15T16:06:03.158Z,99642.34
2024-01-15T16:08:30.343Z,99639.97
2024-01-15T16:10:57.516Z,99639.53
2024-01-15T16:13:24.739Z,99638.81
2024-01-15T16:15:51.907Z,99632.47
2024-01-15T16:23:21.584Z,99635.38
2024-01-15T16:23:36.406Z,99639.63
2024-01-15T16:24:21.699Z,99630.06
2024-01-15T16:26:55.949Z,99631.53
2024-01-15T16:29:24.204Z,99623.31
2024-01-15T16:31:51.314Z,99636.44
2024-01-15T16:34:18.493Z,99628.09
2024-01-15T16:36:45.716Z,99629.97
2024-01-15T16:39:12.948Z,99636.41
2024-01-15T16:41:40.583Z,99648.22
2024-01-15T16:44:07.876Z,99640.38
2024-01-15T16:46:35.054Z,99641.41
2024-01-15T16:49:03.426Z,99630.03
2024-01-15T16:51:30.795Z,99626.50
2024-01-15T16:53:58.697Z,99630.75
2024-01-15T16:56:26.008Z,99632.31
2024-01-15T16:58:54.368Z,99617.34
2024-01-15T17:01:22.288Z,99629.81
2024-01-15T17:03:49.444Z,99621.94
2024-01-15T17:06:18.340Z,99620.19
2024-01-15T17:08:45.486Z,99626.66
2024-01-15T17:11:12.720Z,99616.09
2024-01-15T17:13:41.045Z,99604.34
2024-01-15T17:16:08.409Z,99614.06
2024-01-15T17:18:35.634Z,99610.69
2024-01-15T17:21:02.826Z,99603.59
2024-01-15T17:23:29.992Z,99605.41
2024-01-15T17:25:57.338Z,99590.59
2024-01-15T17:28:25.635Z,99596.53
2024-01-15T17:30:52.909Z,99591.03
2024-01-15T17:33:20.876Z,99592.84
2024-01-15T17:35:57.530Z,99591.03
2024-01-15T17:38:25.794Z,99589.22
2024-01-15T17:40:53.082Z,99579.34
2024-01-15T17:43:21.554Z,99577.59
2024-01-15T17:45:49.865Z,99571.88
2024-01-15T17:48:17.332Z,99572.94
2024-01-15T17:50:44.912Z,99583.81
2024-01-15T17:53:12.585Z,99576.53
2024-01-15T17:55:39.774Z,99567.78
2024-01-15T17:58:07.278Z,99567.91
2024-01-15T18:00:34.806Z,99561.41
2024-01-15T18:03:02.168Z,99565.84
2024-01-15T18:05:29.523Z,99562.91
2024-01-15T18:07:56.957Z,99573.19
2024-01-15T18:10:24.164Z,99559.16
2024-01-15T18:12:51.427Z,99559.34
2024-01-15T18:15:18.820Z,99557.25
2024-01-15T18:17:46.308Z,99556.97
2024-01-15T18:20:15.046Z,99550.06
2024-01-15T18:22:42.329Z,99553.44
2024-01-15T18:25:10.441Z,99550.13
2024-01-15T18:27:37.685Z,99543.06
2024-01-15T18:30:05.187Z,99539.66
2024-01-15T18:32:32.503Z,99533.25
2024-01-15T18:34:59.892Z,99540.53
2024-01-15T18:37:29.024Z,99533.25
2024-01-15T18:39:56.259Z,99537.88
2024-01-15T18:42:23.753Z,99538.91
2024-01-15T18:44:51.317Z,99534.28
2024-01-15T18:47:18.829Z,99535.84
2024-01-15T18:49:48.535Z,99526.47
2024-01-15T18:52:17.715Z,99528.09
2024-01-15T18:54:44.977Z,99521.59
2024-01-15T18:57:12.236Z,99525.22
2024-01-15T18:59:41.412Z,99517.47
2024-01-15T19:02:08.712Z,99522.28
2024-01-15T19:04:36.178Z,99516.56
2024-01-15T19:07:05.933Z,99512.84
2024-01-15T19:09:33.285Z,99515.69
2024-01-15T19:12:00.513Z,99500.59
2024-01-15T19:14:27.985Z,99503.19
2024-01-15T19:16:55.384Z,99498.78
2024-01-15T19:19:22.593Z,99493.97
2024-01-15T19:21:51.284Z,99486.72
2024-01-15T19:24:19.738Z,99488.16
2024-01-15T19:26:46.945Z,99486.91
2024-01-15T19:29:14.372Z,99482.28
2024-01-15T19:31:42.124Z,99481.94
2024-01-15T19:34:09.838Z,99481.72
2024-01-15T19:36:37.072Z,99478.84
2024-01-15T19:39:04.368Z,99479.81
2024-01-15T19:41:31.664Z,99482.78
2024-01-15T19:43:58.920Z,99487.03
2024-01-15T19:46:26.576Z,99481.22
2024-01-15T19:48:54.838Z,99470.31
2024-01-15T19:51:22.136Z,99468.44
2024-01-15T19:53:49.352Z,99466.59
2024-01-15T19:56:18.945Z,99460.44
2024-01-15T19:58:46.294Z,99455.97
2024-01-15T20:01:13.642Z,99444.94
2024-01-15T20:03:42.523Z,99434.88
2024-01-15T20:06:14.222Z,99435.84
2024-01-15T20:08:46.117Z,99432.25
2024-01-15T20:11:14.151Z,99430.91
2024-01-15T20:13:43.047Z,99419.91
2024-01-15T20:16:13.601Z,99419.91
2024-01-15T20:18:42.566Z,99422.06
2024-01-15T20:21:09.908Z,99414.28
2024-01-15T20:23:46.628Z,99417.06
2024-01-15T20:26:22.251Z,99409.34
2024-01-15T20:28:49.657Z,99415.97
2024-01-15T20:31:17.580Z,99408.28
2024-01-15T20:33:44.755Z,99420.03
2024-01-15T20:36:14.417Z,99412.53
2024-01-15T20:38:41.761Z,99414.50
2024-01-15T20:41:09.049Z,99410.41
2024-01-15T20:43:36.524Z,99403.47
2024-01-15T20:46:03.974Z,99405.72
2024-01-15T20:48:32.581Z,99400.97
2024-01-15T20:50:59.800Z,99401.75
2024-01-15T20:53:27.135Z,99400.66
2024-01-15T20:55:54.385Z,99400.06
2024-01-15T20:58:27.514Z,99393.81
2024-01-15T21:00:55.832Z,99383.50
2024-01-15T21:03:23.927Z,99383.44
2024-01-15T21:05:51.364Z,99389.38
2024-01-15T21:08:18.843Z,99397.16
2024-01-15T21:10:46.037Z,99389.06
2024-01-15T21:13:13.279Z,99397.47
2024-01-15T21:15:40.477Z,99389.59
2024-01-15T21:18:07.855Z,99383.84
2024-01-15T21:20:35.084Z,99370.50
2024-01-15T21:23:03.569Z,99354.94
2024-01-15T21:25:31.739Z,99360.44
2024-01-15T21:27:58.903Z,99357.38
2024-01-15T21:30:26.483Z,99352.44
2024-01-15T21:32:53.812Z,99343.56
2024-01-15T21:35:21.190Z,99342.88
2024-01-15T21:37:48.384Z,99337.31
2024-01-15T21:40:16.943Z,99329.91
2024-01-15T21:42:44.979Z,99341.00
2024-01-15T21:45:12.222Z,99334.28
2024-01-15T21:47:39.622Z,99333.13
2024-01-15T21:50:10.113Z,99323.84
2024-01-15T21:52:37.806Z,99328.97
2024-01-15T21:55:07.074Z,99318.22
2024-01-15T21:57:34.476Z,99315.59
2024-01-15T22:00:05.559Z,99315.59
2024-01-15T22:02:41.511Z,99305.31
2024-01-15T22:05:10.387Z,99301.00
2024-01-15T22:07:41.448Z,99300.09
2024-01-15T22:10:09.401Z,99304.53
2024-01-15T22:12:36.706Z,99293.69
2024-01-15T22:15:04.246Z,99294.41
2024-01-15T22:17:31.457Z,99290.97
2024-01-15T22:19:58.789Z,99279.44
2024-01-15T22:22:25.962Z,99298.50
2024-01-15T22:24:53.111Z,99286.41
2024-01-15T22:27:20.292Z,99286.63
2024-01-15T22:29:51.908Z,99284.22
2024-01-15T22:32:19.427Z,99278.28
2024-01-15T22:34:46.800Z,99280.56
2024-01-15T22:37:15.142Z,99275.25
2024-01-15T22:39:42.339Z,99280.97
2024-01-15T22:42:10.203Z,99283.28
2024-01-15T22:44:37.548Z,99279.50
2024-01-15T22:47:05.017Z,99262.16
2024-01-15T22:49:32.324Z,99253.09
2024-01-15T22:51:59.479Z,99258.94
2024-01-15T22:54:27.072Z,99254.16
2024-01-15T22:56:54.225Z,99246.38
2024-01-15T22:59:23.395Z,99253.50
2024-01-15T23:01:50.944Z,99239.72
2024-01-15T23:04:19.039Z,99236.44
2024-01-15T23:06:46.430Z,99231.91
2024-01-15T23:09:13.594Z,99236.75
2024-01-15T23:11:40.906Z,99226.47
2024-01-15T23:14:08.193Z,99232.53
2024-01-15T23:16:35.414Z,99229.38
2024-01-15T23:19:02.603Z,99229.78
2024-01-15T23:21:29.773Z,99231.81
2024-01-15T23:23:56.918Z,99218.50
2024-01-15T23:26:24.100Z,99218.94
2024-01-15T23:28:51.331Z,99222.91
2024-01-15T23:31:18.583Z,99214.00
2024-01-15T23:33:45.769Z,99206.03
2024-01-15T23:36:13.108Z,99206.91
2024-01-15T23:38:40.528Z,99210.66
2024-01-15T23:41:10.966Z,99191.94
2024-01-15T23:43:39.809Z,99196.34
2024-01-15T23:46:14.247Z,99199.81
2024-01-15T23:48:42.734Z,99187.91
2024-01-15T23:51:10.197Z,99195.81
2024-01-15T23:53:37.426Z,99196.63
2024-01-15T23:56:05.308Z,99202.75
2024-01-15T23:58:32.528Z,99195.34
